Roswell International Air Center Airport
KROW : now visible

Airfield :











YOU CAN JOIN US ON...

 
LOGIN :

Register | Disclaimer

   EN    FR    IT 

 









Legend :    VFR   Marginal VFR   IFR   Intensive IFR   Very Intensive IFR
Visi :
Ceiling :
>= 8 km
>= 3000ft
5 to 8 km
1000 to 3000 ft
1500m to 5 km
500 to 1000 ft
800 to 1500m
200 to 500 ft
< 800m
< 200 ft
Symbols :   Thunderstorms  Fog  Heavy snow  Heavy precipitations  Wind > 20 kt







- Airport Elevation : 3671 ft
- IATA code : ROW


KROW - Roswell International Air Center

CURRENT METAR :
  • 192251Z 19023G29KT 10SM CLR 31/M08 A2978 RMK AO2 PK WND 19029/2242 SLP028 T03061078

EXPIRED METARs :
  • 192151Z 17019G26KT 10SM CLR 31/M08 A2981 RMK AO2 PK WND 17029/2103 SLP036 T03061083
  • 192051Z 15014G20KT 10SM CLR 29/M08 A2984 RMK AO2 SLP050 T02891078 58029

TAF KROW
Valid from the 19 at 18:00 until the 20 at 18:00 UTC


191726Z 1918/2018 14012KT P6SM BKN250
FM192100 18018G25KT P6SM FEW090 BKN250
FM200200 16010KT P6SM BKN150
FM201500 20015G22KT P6SM SCT100 BKN150
KZAB FIR / North America



MET'MAP, your aeronautical weather chart ! - Copyright ORBIFLY December 2007 - Disclaimer

ORBIFLY MET'MAP TEAM :

Programming & Development : Alexandra Zaïnal
Concept & Development : Baudouin d'Aumeries
Co-Development & Prog : Marc-Olivier Méhu
Technical & hardware support : Manuel Goepfert

Contact : metmap@orbifly.com




SOURCES & CREDITS :

   NOAA       Earth
Advisory